Tiempo atmosférico en la estación meteorológica de Hierro Aeropuerto, Santa Cruz de Tenerife (32 m.)



Fecha
DESCASC
Temp. máxima en grados centígrados (hora)
DESCASC
Temp. mínima en grados centígrados (hora)
DESCASC
Temp. media en grados centígrados
DESCASC
Racha de viento máxima en m/sg (hora)
DESCASC
Velocidad máxima media en intervalos de 10 minutos(hora)
DESCASC
Precipitaciones diarias en mm
DESCASC
Precipitaciones de 00:00 a 06:00 en mm
DESCASC
Precipitaciones de 06:00 a 12:00 en mm
DESCASC
Precipitaciones de 12:00 a 18:00 en mm
DESCASC
Precipitaciones de 18:00 a 24:00 en mm
DESCASC
26-03-2020 21.6 (14:00) 16 (08:50) 18.8 10.28 (08:30) 7.22 (20:50) 0.4 0 0.4 0 0
25-03-2020 21.4 (12:20) 16.5 (02:20) 18.9 8.33 (00:10) 7.22 (05:40) 0.3 0.3 0 0 0
24-03-2020 21.3 (12:00) 17.5 (05:50) 19.4 12.78 (01:40) 9.17 (01:50) 0 0 0 0 0
23-03-2020 20.1 (11:00) 14.1 (04:10) 17.1 21.67 (04:00) 15 (12:50) 4.1 4.1 0 0 0
22-03-2020 21.4 (13:50) 15.1 (08:10) 18.3 18.61 (15:40) 13.89 (20:50) 1.2 0 0 1.2 0
21-03-2020 20 (14:00) 17.6 (00:00) 18.8 14.44 (09:10) 11.39 (09:40) 0 0 0 0 0
20-03-2020 20.8 (13:50) 17.9 (00:00) 19.3 12.5 (12:40) 10 (22:30) 0 0 0 0 0
19-03-2020 21 (11:20) 17.8 (00:00) 19.4 15 (10:30) 12.22 (10:30) 0 0 0 0 0
18-03-2020 20.5 (14:00) 15.7 (00:00) 18.1 16.94 (02:40) 12.22 (02:40) 0 0 0 0 0
17-03-2020 19.3 (13:10) 15.7 (00:00) 17.5 16.94 (09:30) 13.06 (23:20) 0.6 0 0.6 0 0
16-03-2020 20.5 (12:50) 17.8 (00:00) 19.1 16.11 (16:40) 12.78 (16:40) 0 0 0 0 0
15-03-2020 20.5 (14:50) 17.4 (00:00) 18.9 15 (20:50) 12.5 (21:00) 0 0 0 0 0
14-03-2020 21.4 (14:40) 18.3 (00:00) 19.8 13.89 (03:00) 11.39 (06:50) 0 0 0 0 0
13-03-2020 20.5 (13:30) 18.1 (05:40) 19.3 15.28 (09:10) 11.39 (09:10) 0 0 0 0 0
12-03-2020 22.2 (12:30) 18 (00:00) 20.1 11.39 (17:10) 8.33 (22:20) 0 0 0 0 0
11-03-2020 20.6 (09:20) 18.1 (00:00) 19.4 9.72 (09:20) 7.78 (09:20) 0 0 0 0 0
10-03-2020 -- (--) -- (--) -- 11.39 (17:40) 6.39 (23:30) 0 0 0 0 0
09-03-2020 22 (15:40) 18.4 (00:00) 20.2 17.5 (02:50) 11.11 (02:00) 0 0 0 0 0
08-03-2020 21.2 (13:50) 18.2 (00:00) 19.7 14.44 (09:20) 10.28 (09:40) 0 0 0 0 0
07-03-2020 20.3 (12:40) 17.8 (00:00) 19 16.39 (06:50) 12.5 (06:40) 0 0 0 0 0
06-03-2020 19.9 (11:30) 17.9 (00:00) 18.9 18.61 (13:30) 13.61 (13:30) 0 0 0 0 0
05-03-2020 20.9 (11:20) 18.7 (00:00) 19.8 16.39 (23:40) 11.94 (23:30) 0 0 0 0 0
04-03-2020 21.7 (12:40) 18.4 (05:30) 20.1 15.28 (18:50) 11.11 (19:30) 0 0 0 0 0
03-03-2020 21.2 (11:30) 18.6 (00:00) 19.9 11.39 (04:20) 8.61 (04:10) 0 0 0 0 0
02-03-2020 22.1 (13:40) 18.5 (00:00) 20.3 11.39 (22:10) 8.61 (22:10) 0 0 0 0 0
01-03-2020 21.4 (14:40) 18.2 (00:00) 19.8 10.83 (23:00) 8.89 (23:00) 0 0 0 0 0
29-02-2020 21.5 (13:30) 17.8 (00:00) 19.6 10.28 (17:50) 8.33 (00:10) 0 0 0 0 0
28-02-2020 21 (12:50) 17.7 (00:00) 19.4 13.89 (21:40) 9.17 (21:50) 0 0 0 0 0

Gráficas

Temp. máximas Temp. mínimas Temp. medias Precipitaciones Rachas de viento máximas Velocidades máximas media en intervalos de 10 minutos

Datos horarios

Fecha y hora oficial Temperatura (ºC) Velocidad del viento (km/h) Dirección del viento Racha (km/h) Dirección de racha Precipitación (mm) Presión (hPa) Tendencia (hPa) Humedad (%)
2020-03-28 23:00:00 17.7 12 Oeste 18 Oeste 0 1017 1.4 64
2020-03-28 22:00:00 17.6 12 Oeste 17 Oeste 0 1016.9 1.6 65
2020-03-28 21:00:00 17.7 11 Oeste 18 Oeste 0 1016.3 1.3 63
2020-03-28 20:00:00 18.4 10 Noroeste 18 Norte 0 1015.6 1.1 63
2020-03-28 19:00:00 18.6 13 Norte 22 Norte 0 1015.3 1 63
2020-03-28 18:00:00 19.6 15 Norte 30 Norte 0 1015 0.9 60
2020-03-28 17:00:00 19.8 19 Norte 28 Norte 0 1014.5 0.3 58
2020-03-28 16:00:00 20.1 21 Norte 30 Norte 0 1014.3 -0.3 57
2020-03-28 15:00:00 20.1 20 Norte 28 Norte 0 1014.1 -1 56
2020-03-28 14:00:00 20.6 22 Norte 28 Norte 0 1014.2 -0.9 57
2020-03-28 13:00:00 20.3 21 Norte 30 Norte 0 1014.6 -0.2 57
2020-03-28 12:00:00 21 18 Norte 26 Norte 0 1015.1 0.6 53
2020-03-28 11:00:00 20.2 16 Noroeste 26 Noroeste 0 1015.1 1.2 56
2020-03-28 10:00:00 19.3 19 Norte 32 Noroeste 0 1014.8 1.5 58
2020-03-28 09:00:00 18.6 22 Noroeste 33 Noroeste 0 1014.5 1.7 59
2020-03-28 08:00:00 17.8 19 Noroeste 33 Norte 0 1013.9 1.3 63
2020-03-28 07:00:00 17.2 23 Noroeste 37 Noroeste 0 1013.3 0.8 65
2020-03-28 06:00:00 17.3 23 Noroeste 39 Noroeste 0 1012.8 0.1 69
2020-03-28 05:00:00 17.3 25 Noroeste 37 Noroeste 0 1012.6 -0.3 71
2020-03-28 04:00:00 17.4 19 Noroeste 30 Noroeste 0 1012.5 -0.9 66
2020-03-28 03:00:00 17.4 18 Noroeste 28 Noroeste 0 1012.7 -0.7 65
2020-03-28 02:00:00 17.6 22 Noroeste 33 Noroeste 0 1012.9 -0.5 63
2020-03-28 01:00:00 17.7 22 Noroeste 37 Noroeste 0 1013.4 0.4 65
2020-03-28 00:00:00 17.8 24 Noroeste 37 Noroeste 0 1013.4 0.9 66
2020-03-27 23:00:00 17.8 27 Noroeste 41 Noroeste 0 1013.4 1.6 66
2020-03-27 22:00:00 17.8 30 Noroeste 45 Noroeste 0 1013 1.8 64
2020-03-27 21:00:00 17.8 34 Noroeste 46 Noroeste 0 1012.5 1.8 62
2020-03-27 20:00:00 17.8 30 Noroeste 46 Noroeste 0 1011.8 1.3 63
2020-03-27 19:00:00 17.8 27 Noroeste 48 Noroeste 0 1011.2 0.7 77
2020-03-27 18:00:00 18.6 28 Noroeste 42 Norte 0 1010.7 -0.2 74
2020-03-27 17:00:00 18.7 29 Norte 41 Norte 0.2 1010.5 -1 78
2020-03-27 16:00:00 19.8 23 Noroeste 45 Noroeste 0 1010.5 -1.3 66
2020-03-27 15:00:00 20.6 24 Norte 39 Noroeste 0 1010.9 -1.2 63
2020-03-27 14:00:00 19.5 20 Noroeste 35 Norte 0.2 1011.5 -0.8 69
2020-03-27 13:00:00 21.8 22 Norte 41 Noroeste 0 1011.8 -0.1 53
2020-03-27 12:00:00 21.5 19 Noroeste 41 Noroeste 0 1012.1 0.6 59
2020-03-27 11:00:00 20.9 18 Noroeste 39 Norte 0 1012.3 1.2 61
2020-03-27 10:00:00 20 19 Noroeste 39 Noroeste 0 1011.9 1.1 65
2020-03-27 09:00:00 18.9 21 Noroeste 37 Noroeste 0 1011.5 1.2 70
2020-03-27 08:00:00 18.2 24 Noroeste 33 Norte 0 1011.1 0.8 74
2020-03-27 07:00:00 17.7 13 Noroeste 26 Noroeste 0 1010.8 0.1 73
2020-03-27 06:00:00 17.4 15 Oeste 28 Noroeste 0 1010.3 -0.7 73
2020-03-27 05:00:00 17.5 19 Noroeste 30 Noroeste 0 1010.3 -1.2 73
2020-03-27 04:00:00 17.1 12 Noroeste 28 Oeste 0.1 1010.7 -1.2 78
2020-03-27 03:00:00 17.6 14 Noroeste 22 Noroeste 0 1011 -1.1 72
2020-03-27 02:00:00 17.5 13 Oeste 28 Noroeste 0 1011.5 -0.7 72
2020-03-27 01:00:00 18 12 Noroeste 28 Oeste 0 1011.9 -0.1 70
2020-03-27 00:00:00 18.1 19 Noroeste 30 Norte 0 1012.1 0.3 70
2020-03-26 23:00:00 18.3 22 Norte 28 Norte 0 1012.2 0.8 74
2020-03-26 22:00:00 18.2 20 Norte 32 Norte 0 1012 0.7 75
2020-03-26 21:00:00 18.2 24 Norte 32 Norte 0 1011.8 0.7 73
2020-03-26 20:00:00 18.7 11 Norte 24 Norte 0 1011.4 0.3 68
2020-03-26 19:00:00 18.7 15 Norte 26 Norte 0 1011.3 -0.1 66
2020-03-26 18:00:00 19.2 17 Norte 24 Noroeste 0 1011.1 -0.5 66
2020-03-26 17:00:00 20 16 Norte 21 Norte 0 1011.1 -1.2 63
2020-03-26 16:00:00 21 12 Norte 21 Noroeste 0 1011.4 -1.4 56
2020-03-26 15:00:00 21.2 13 Norte 17 Norte 0 1011.6 -1.7 60
2020-03-26 14:00:00 21.2 12 Norte 18 Norte 0 1012.3 -1.2 61
2020-03-26 13:00:00 20.9 8 Norte 11 Nordeste 0 1012.8 -0.5 63
2020-03-26 12:00:00 20.2 7 Norte 11 Nordeste 0 1013.3 0.3 66
2020-03-26 11:00:00 18.9 4 Este 33 Sur 0 1013.5 1.3 71
2020-03-26 10:00:00 18.3 4 Sur 22 Sudoeste 0 1013.3 1.4 71
2020-03-26 09:00:00 16.4 11 Sur 37 Nordeste 0.4 1013 1.3 78
2020-03-26 08:00:00 17.5 10 Sur 15 Sudeste 0 1012.2 0.9 75
2020-03-26 07:00:00 17.6 12 Sur 18 Sur 0 1011.9 0.2 75
2020-03-26 06:00:00 18.4 14 Norte 18 Norte 0 1011.7 -0.3 72
2020-03-26 05:00:00 18.1 10 Nordeste 17 Este 0 1011.3 -1.5 72
2020-03-26 04:00:00 18.2 12 Nordeste 18 Nordeste 0 1011.7 -1.5 75
2020-03-26 03:00:00 18.4 11 Sudeste 18 Sudeste 0 1012 -1.4 73
2020-03-26 02:00:00 18.6 13 Sudeste 26 Nordeste 0 1012.8 -0.9 68
2020-03-26 01:00:00 18.6 19 Nordeste 26 Nordeste 0 1013.2 -0.5 71
2020-03-26 00:00:00 18.7 17 Nordeste 30 Nordeste 0 1013.4 0.1 70
2020-03-25 23:00:00 18.8 21 Nordeste 30 Nordeste 0 1013.7 0.7 68
2020-03-25 22:00:00 18.7 21 Nordeste 30 Nordeste 0 1013.7 0.8 72
2020-03-25 21:00:00 18.8 9 Nordeste 17 Nordeste 0 1013.3 0.5 65
2020-03-25 20:00:00 18.7 6 Nordeste 11 Este 0 1013 0 66
2020-03-25 19:00:00 18.7 8 Este 15 Este 0 1012.9 -0.4 69
2020-03-25 18:00:00 19 5 Este 18 Este 0 1012.8 -0.9 66
2020-03-25 17:00:00 19.7 11 Sudeste 18 Este 0 1013 -1.1 65
2020-03-25 16:00:00 19.1 14 Este 22 Este 0 1013.3 -1.2 65
2020-03-25 15:00:00 18.9 17 Este 22 Este 0 1013.7 -1.1 72
2020-03-25 14:00:00 19.2 15 Este 24 Este 0 1014.1 -0.9 73
2020-03-25 13:00:00 20.3 7 Este 15 Nordeste 0 1014.5 -0.3 60
2020-03-25 12:00:00 20.6 10 Nordeste 18 Nordeste 0 1014.8 0.4 63
2020-03-25 11:00:00 19.8 14 Nordeste 24 Nordeste 0 1015 1 67
2020-03-25 10:00:00 19 15 Nordeste 24 Nordeste 0 1014.8 1.2 69
2020-03-25 09:00:00 18.4 19 Nordeste 26 Nordeste 0 1014.4 1.2 69
2020-03-25 08:00:00 18.4 18 Norte 22 Norte 0 1014 1.1 70
2020-03-25 07:00:00 18.2 17 Norte 26 Nordeste 0 1013.6 0.4 70
2020-03-25 06:00:00 18 21 Nordeste 30 Nordeste 0 1013.2 -0.3 74
2020-03-25 05:00:00 17.8 10 Noroeste 22 Norte 0 1012.9 -1.2 71
2020-03-25 04:00:00 18.1 18 Norte 24 Norte 0 1013.2 -1.3 73
2020-03-25 03:00:00 17.8 13 Noroeste 26 Oeste 0 1013.5 -1.2 68
2020-03-25 02:00:00 17.4 14 Norte 30 Norte 0 1014.1 -0.9 78
2020-03-25 01:00:00 17.2 10 Oeste 30 Norte 0.3 1014.5 -0.7 77
2020-03-25 00:00:00 18.4 26 Norte 35 Norte 0 1014.7 0 74
2020-03-24 23:00:00 18.4 21 Norte 30 Norte 0 1015 0.8 75
2020-03-24 22:00:00 18.5 21 Norte 30 Norte 0 1015.2 1.4 74
2020-03-24 21:00:00 18.5 24 Norte 30 Norte 0 1014.7 0.9 72
2020-03-24 20:00:00 18.3 19 Norte 39 Norte 0 1014.2 0.6 74
2020-03-24 19:00:00 18.8 24 Noroeste 37 Noroeste 0 1013.8 -0.1 68
2020-03-24 18:00:00 18.7 26 Norte 32 Norte 0 1013.8 -0.4 74
2020-03-24 17:00:00 19.2 26 Norte 32 Norte 0 1013.6 -1 71
2020-03-24 16:00:00 19.6 18 Norte 30 Norte 0 1013.9 -1.3 68
2020-03-24 15:00:00 19.9 22 Norte 28 Norte 0 1014.2 -1.4 68
2020-03-24 14:00:00 20.7 20 Norte 26 Norte 0 1014.6 -0.9 67
2020-03-24 13:00:00 20.7 22 Norte 28 Norte 0 1015.2 0.2 66
2020-03-24 12:00:00 20.6 18 Norte 26 Norte 0 1015.6 1.4 67
2020-03-24 11:00:00 20.5 19 Norte 28 Norte 0 1015.5 1.6 65
2020-03-24 10:00:00 20 21 Norte 30 Norte 0 1015 1.5 68
2020-03-24 09:00:00 18.7 22 Norte 33 Norte 0 1014.2 1.3 73
2020-03-24 08:00:00 18.3 24 Norte 35 Norte 0 1013.9 0.7 73
2020-03-24 07:00:00 18.2 26 Norte 42 Noroeste 0 1013.5 0.2 77
2020-03-24 06:00:00 17.6 31 Noroeste 45 Noroeste 0 1012.9 -0.3 78
2020-03-24 05:00:00 17.9 16 Norte 30 Norte 0 1013.2 0 78
2020-03-24 04:00:00 18 24 Norte 35 Norte 0 1013.3 -0.9 78
2020-03-24 03:00:00 18.3 29 Noroeste 41 Noroeste 0 1013.2 -0.8 74
2020-03-24 02:00:00 18.6 28 Norte 46 Norte 0 1013.2 -0.8 73
2020-03-24 01:00:00 18.2 17 Noroeste 41 Noroeste 0 1014.2 0.6 70
2020-03-24 00:00:00 18.3 31 Noroeste 50 Norte 0 1014 1.2 70
2020-03-23 23:00:00 18.4 38 Norte 46 Norte 0 1014 1.6 72
2020-03-23 22:00:00 18.1 41 Norte 54 Norte 0 1013.6 1.9 72
2020-03-23 21:00:00 18.6 41 Norte 54 Norte 0 1012.8 1.6 74
2020-03-23 20:00:00 18.3 29 Norte 48 Norte 0 1012.4 1.6 73
2020-03-23 19:00:00 18.4 43 Norte 54 Norte 0 1011.7 1.1 71
2020-03-23 18:00:00 18.6 38 Norte 48 Norte 0 1011.2 0.6 70
2020-03-23 17:00:00 19 36 Norte 61 Norte 0 1010.8 0 68
2020-03-23 16:00:00 19.2 53 Norte 61 Norte 0 1010.6 -0.1 67
2020-03-23 15:00:00 18.9 39 Norte 68 Norte 0 1010.6 -1.1 67
2020-03-23 14:00:00 19.6 38 Norte 59 Norte 0 1010.8 -0.6 68
2020-03-23 13:00:00 19.2 51 Norte 65 Norte 0 1010.7 0 66
2020-03-23 12:00:00 19.5 36 Norte 52 Norte 0 1011.7 1.5 64
2020-03-23 11:00:00 19.7 30 Noroeste 52 Norte 0 1011.4 1.6 62
2020-03-23 10:00:00 19 37 Norte 65 Noroeste 0 1010.7 1.4 69
2020-03-23 09:00:00 17.6 42 Noroeste 65 Noroeste 0 1010.2 1.1 73
2020-03-23 08:00:00 17.8 44 Noroeste 63 Noroeste 0 1009.8 1.1 66
2020-03-23 07:00:00 17.3 40 Noroeste 59 Noroeste 0 1009.3 0.1 67
2020-03-23 06:00:00 17.1 42 Noroeste 59 Noroeste 0 1009.1 -0.6 68
2020-03-23 05:00:00 17 42 Noroeste 61 Noroeste 2.3 1008.7 -0.9 67
2020-03-23 04:00:00 15 51 Noroeste 78 Norte 0.7 1009.2 -1.2 80
2020-03-23 03:00:00 15.9 44 Noroeste 74 Noroeste 0.6 1009.7 -1.1 77
2020-03-23 02:00:00 17.4 45 Noroeste 65 Noroeste 0 1009.6 -1.5 69
2020-03-23 01:00:00 16.7 47 Noroeste 71 Noroeste 0.5 1010.4 -1 73
2020-03-23 00:00:00 17.7 47 Noroeste 65 Noroeste 0 1010.8 -0.3 66
2020-03-22 23:00:00 17.7 44 Noroeste 61 Noroeste 0 1011.1 0.4 70
2020-03-22 22:00:00 17.4 49 Noroeste 67 Noroeste 0 1011.4 0.6 63
2020-03-22 21:00:00 17.6 45 Noroeste 65 Noroeste 0 1011.1 0.6 66
2020-03-22 20:00:00 18 44 Noroeste 67 Noroeste 0 1010.7 -0.2 65
2020-03-22 19:00:00 18 45 Noroeste 67 Noroeste 0 1010.8 -0.8 62
2020-03-22 18:00:00 18 43 Noroeste 61 Noroeste 0 1010.5 -1.1 67
2020-03-22 17:00:00 16.5 36 Noroeste 67 Noroeste 0.3 1010.9 -1.6 86
2020-03-22 16:00:00 16 46 Noroeste 67 Noroeste 0.9 1011.6 -1.9 89
2020-03-22 15:00:00 20.9 30 Noroeste 55 Oeste 0 1011.6 -2.5 57
2020-03-22 14:00:00 20.8 29 Noroeste 55 Noroeste 0 1012.5 -2.6 57
2020-03-22 13:00:00 20.5 24 Noroeste 50 Noroeste 0 1013.5 -1.7 54
2020-03-22 12:00:00 20.3 29 Noroeste 48 Noroeste 0 1014.1 -1.1 55
2020-03-22 11:00:00 19.4 28 Noroeste 46 Noroeste 0 1015.1 0 61
2020-03-22 10:00:00 18.8 32 Noroeste 46 Norte 0 1015.2 0.5 64
2020-03-22 09:00:00 17.5 28 Noroeste 50 Oeste 0 1015.2 0.6 68
2020-03-22 08:00:00 16.6 39 Noroeste 54 Norte 0 1015.1 0.5 77
2020-03-22 07:00:00 17.1 30 Noroeste 45 Noroeste 0 1014.7 -0.6 68
2020-03-22 06:00:00 17.3 30 Noroeste 52 Noroeste 0 1014.6 -1.2 69
2020-03-22 05:00:00 17.4 31 Noroeste 42 Noroeste 0 1014.6 -2.2 64
2020-03-22 04:00:00 17.7 28 Norte 41 Norte 0 1015.3 -1.9 68
2020-03-22 03:00:00 17.8 33 Norte 42 Norte 0 1015.8 -1.6 68
2020-03-22 02:00:00 18 24 Norte 41 Norte 0 1016.8 -1.1 63
2020-03-22 01:00:00 18.2 32 Norte 42 Norte 0 1017.2 -0.5 61
2020-03-22 00:00:00 18.1 34 Norte 45 Norte 0 1017.4 0 64
2020-03-21 23:00:00 18 33 Norte 41 Norte 0 1017.9 0.9 62
2020-03-21 22:00:00 18 36 Norte 46 Norte 0 1017.7 0.9 65
2020-03-21 21:00:00 18 33 Norte 45 Norte 0 1017.4 0.8 67
2020-03-21 20:00:00 18.2 31 Norte 41 Nordeste 0 1017 0.3 65
2020-03-21 19:00:00 18.2 32 Norte 41 Nordeste 0 1016.8 -0.3 67
2020-03-21 18:00:00 18.5 32 Norte 41 Norte 0 1016.6 -1.1 62
2020-03-21 17:00:00 19 29 Norte 39 Norte 0 1016.7 -1.7 61
2020-03-21 16:00:00 19.3 25 Norte 37 Norte 0 1017.1 -2.1 57
2020-03-21 15:00:00 19.6 27 Norte 35 Norte 0 1017.7 -1.7 57
2020-03-21 14:00:00 19.7 25 Norte 35 Norte 0 1018.4 -1.1 60
2020-03-21 13:00:00 19.4 29 Norte 45 Norte 0 1019.2 0.1 58
2020-03-21 12:00:00 19.5 31 Norte 41 Norte 0 1019.4 1 53
2020-03-21 11:00:00 19 33 Norte 48 Nordeste 0 1019.5 1.6 59
2020-03-21 10:00:00 18.8 39 Nordeste 52 Nordeste 0 1019.1 1.4 59
2020-03-21 09:00:00 18.5 40 Nordeste 48 Nordeste 0 1018.4 1.1 59
2020-03-21 08:00:00 18.1 37 Nordeste 46 Nordeste 0 1017.9 0.8 62
2020-03-21 07:00:00 17.9 33 Nordeste 46 Norte 0 1017.7 0.6 65
2020-03-21 06:00:00 17.9 35 Nordeste 42 Nordeste 0 1017.3 0 65
2020-03-21 05:00:00 17.8 32 Norte 41 Nordeste 0 1017.1 -0.6 64
2020-03-21 04:00:00 17.9 30 Norte 45 Nordeste 0 1017.1 -1 67
2020-03-21 03:00:00 18 32 Norte 41 Nordeste 0 1017.3 -1 71
2020-03-21 02:00:00 18 28 Norte 39 Norte 0 1017.7 -0.6 73
2020-03-21 01:00:00 18.1 31 Norte 39 Nordeste 0 1018.1 -0.3 76
2020-03-21 00:00:00 18 30 Norte 39 Norte 0 1018.3 -0.1 74
2020-03-20 23:00:00 18.3 32 Norte 42 Norte 0 1018.3 0.6 75
2020-03-20 22:00:00 18.3 33 Norte 39 Norte 0 1018.4 1.1 74
2020-03-20 21:00:00 18.3 26 Norte 37 Norte 0 1018.4 1.3 73
2020-03-20 20:00:00 18.4 32 Norte 41 Norte 0 1017.7 0.9 77
2020-03-20 19:00:00 18.4 28 Norte 37 Nordeste 0 1017.3 0.5 79
2020-03-20 18:00:00 18.8 26 Norte 35 Norte 0 1017.1 -0.2 78
2020-03-20 17:00:00 19.1 28 Norte 37 Nordeste 0 1016.8 -0.9 73
2020-03-20 16:00:00 19.9 25 Norte 33 Norte 0 1016.8 -1.3 69
2020-03-20 15:00:00 20.5 26 Norte 35 Norte 0 1017.3 -1.2 63
2020-03-20 14:00:00 20.5 28 Norte 42 Norte 0 1017.7 -0.5 64
2020-03-20 13:00:00 20.1 32 Norte 45 Norte 0 1018.1 0.2 65
2020-03-20 12:00:00 19.7 30 Norte 39 Norte 0 1018.5 1.5 67
2020-03-20 11:00:00 20.2 23 Norte 35 Norte 0 1018.2 1.8 70
2020-03-20 10:00:00 20.2 28 Norte 37 Norte 0 1017.9 2.3 68
2020-03-20 09:00:00 19.5 28 Norte 41 Norte 0 1017 1.8 70
2020-03-20 08:00:00 18.6 28 Norte 37 Norte 0 1016.4 1.4 72
2020-03-20 07:00:00 18.4 31 Norte 41 Norte 0 1015.6 0.3 77
2020-03-20 06:00:00 18.5 33 Norte 41 Norte 0 1015.2 -0.5 77
2020-03-20 05:00:00 18.4 31 Norte 39 Norte 0 1015 -1.1 77
2020-03-20 04:00:00 18.5 27 Norte 33 Norte 0 1015.3 -1.1 76
2020-03-20 03:00:00 18.5 31 Norte 41 Norte 0 1015.7 -1.2 79
2020-03-20 02:00:00 18.6 24 Norte 33 Norte 0 1016.1 -0.9 82
2020-03-20 01:00:00 18.6 30 Norte 42 Norte 0 1016.4 -0.5 79
2020-03-20 00:00:00 18.7 29 Norte 42 Norte 0 1016.9 0.1 81
2020-03-19 23:00:00 18.8 36 Norte 45 Norte 0 1017 0.7 81
2020-03-19 22:00:00 19 39 Norte 48 Norte 0 1016.9 1 80
2020-03-19 21:00:00 18.9 30 Norte 39 Norte 0 1016.8 1.1 80
2020-03-19 20:00:00 19.1 32 Norte 45 Norte 0 1016.3 0.8 80
2020-03-19 19:00:00 19.2 32 Norte 46 Norte 0 1015.9 0.7 79
2020-03-19 18:00:00 19.3 37 Norte 46 Norte 0 1015.7 0.3 78
2020-03-19 17:00:00 19.6 29 Norte 41 Norte 0 1015.5 -0.3 78
2020-03-19 16:00:00 20.2 30 Norte 46 Norte 0 1015.2 -1.1 77
2020-03-19 15:00:00 20.2 34 Norte 42 Norte 0 1015.4 -1.2 76
2020-03-19 14:00:00 20.9 28 Norte 48 Norte 0 1015.8 -0.7 73
2020-03-19 13:00:00 20.6 37 Norte 48 Norte 0 1016.3 -0.1 72
2020-03-19 12:00:00 20.6 38 Norte 46 Norte 0 1016.6 0.8 72
2020-03-19 11:00:00 20.4 34 Noroeste 54 Norte 0 1016.5 1.2 64
2020-03-19 10:00:00 20 37 Norte 45 Norte 0 1016.4 1.5 72
2020-03-19 09:00:00 19.2 32 Norte 45 Norte 0 1015.8 1.3 74
2020-03-19 08:00:00 18.7 36 Norte 46 Norte 0 1015.3 0.5 75
2020-03-19 07:00:00 18.3 23 Noroeste 46 Norte 0 1014.9 0.1 71
2020-03-19 06:00:00 18.5 30 Norte 50 Norte 0 1014.5 -0.9 74
2020-03-19 05:00:00 18.5 30 Norte 46 Norte 0 1014.8 -0.7 69
2020-03-19 04:00:00 18.4 39 Norte 50 Norte 0 1014.8 -0.8 67
2020-03-19 03:00:00 18 35 Norte 48 Norte 0 1015.4 -0.7 70
2020-03-19 02:00:00 18.1 33 Norte 45 Norte 0 1015.5 -0.7 71
2020-03-19 01:00:00 18.1 38 Norte 50 Norte 0 1015.6 -0.5 73
2020-03-19 00:00:00 18.2 37 Norte 46 Norte 0 1016.1 0.2 73
2020-03-18 23:00:00 18.3 27 Noroeste 46 Norte 0 1016.2 0.7 72
2020-03-18 22:00:00 18.4 31 Noroeste 52 Norte 0 1016.1 1.1 69
2020-03-18 21:00:00 18.3 28 Norte 39 Norte 0 1015.9 0.7 70
2020-03-18 20:00:00 18.4 32 Norte 50 Norte 0 1015.5 0.4 67
2020-03-18 19:00:00 18.4 42 Norte 52 Norte 0 1015 -0.1 67
2020-03-18 18:00:00 18.6 40 Norte 48 Norte 0 1015.2 -0.3 66
2020-03-18 17:00:00 19 35 Norte 48 Norte 0 1015.1 -0.9 65
2020-03-18 16:00:00 19.6 39 Norte 45 Norte 0 1015.1 -1.7 64
2020-03-18 15:00:00 20 31 Norte 39 Norte 0 1015.5 -1.8 59
2020-03-18 14:00:00 20.1 25 Norte 42 Norte 0 1016 -1.7 61
2020-03-18 13:00:00 20.1 36 Norte 46 Norte 0 1016.8 -0.8 57
2020-03-18 12:00:00 20.1 37 Norte 45 Norte 0 1017.3 0.2 56
2020-03-18 11:00:00 19.1 31 Norte 45 Norte 0 1017.7 1.2 65
2020-03-18 10:00:00 18.3 33 Norte 50 Nordeste 0 1017.6 1.3 70
2020-03-18 09:00:00 18.1 37 Norte 48 Norte 0 1017.1 1.2 70
2020-03-18 08:00:00 17.6 29 Norte 45 Norte 0 1016.5 0.6 74
2020-03-18 07:00:00 17 24 Norte 45 Norte 0 1016.3 0.1 74
2020-03-18 06:00:00 17.3 34 Norte 45 Norte 0 1015.9 -0.4 74
2020-03-18 05:00:00 17.2 40 Norte 50 Norte 0 1015.9 -1.1 77
2020-03-18 04:00:00 16.2 36 Norte 58 Norte 0 1016.2 -1 83
2020-03-18 03:00:00 16.7 43 Norte 61 Norte 0 1016.3 -1.6 77
2020-03-18 02:00:00 17.3 35 Norte 50 Norte 0 1017 -0.9 73
2020-03-18 01:00:00 17 39 Norte 48 Norte 0 1017.2 -1.1 77
2020-03-18 00:00:00 17.3 33 Norte 55 Norte 0 1017.9 0.1 76
2020-03-17 23:00:00 17.9 43 Norte 54 Norte 0 1017.9 0.8 71
2020-03-17 22:00:00 17.4 42 Norte 52 Norte 0 1018.3 1.3 78
2020-03-17 21:00:00 17.6 36 Norte 52 Norte 0 1017.8 1.1 78
2020-03-17 20:00:00 17.5 37 Norte 48 Norte 0 1017.1 0.4 78
2020-03-17 19:00:00 16.9 29 Norte 50 Norte 0 1017 0.1 82
2020-03-17 18:00:00 17.8 36 Norte 46 Norte 0 1016.7 -0.5 76
2020-03-17 17:00:00 17.7 31 Norte 42 Norte 0 1016.7 -0.9 76
2020-03-17 16:00:00 18.1 29 Norte 39 Norte 0 1016.9 -1.3 73
2020-03-17 15:00:00 18.1 35 Norte 50 Norte 0 1017.2 -1.4 76
2020-03-17 14:00:00 17.9 39 Norte 46 Nordeste 0 1017.6 -1.2 73
2020-03-17 13:00:00 18.7 23 Norte 48 Norte 0 1018.2 -0.5 70
2020-03-17 12:00:00 18.5 31 Norte 48 Norte 0 1018.6 0.3 70
2020-03-17 11:00:00 17.9 27 Norte 48 Norte 0 1018.8 0.7 71
2020-03-17 10:00:00 17.6 36 Norte 61 Nordeste 0 1018.7 0.7 69
2020-03-17 09:00:00 17.1 33 Nordeste 50 Nordeste 0.5 1018.3 1.2 76
2020-03-17 08:00:00 16.7 31 Norte 52 Nordeste 0.1 1018.1 1.7 77
2020-03-17 07:00:00 16.8 34 Norte 48 Norte 0 1018 1.4 78
2020-03-17 06:00:00 17.3 33 Norte 50 Norte 0 1017.1 0.3 69
2020-03-17 05:00:00 17.8 40 Norte 50 Norte 0 1016.4 -0.9 63
2020-03-17 04:00:00 17.6 42 Norte 52 Norte 0 1016.6 -0.9 70
2020-03-17 03:00:00 18 40 Norte 46 Norte 0 1016.8 -1.2 64
2020-03-17 02:00:00 17.9 38 Norte 54 Norte 0 1017.3 -0.9 69
2020-03-17 01:00:00 18 41 Norte 52 Norte 0 1017.5 -0.5 72
2020-03-17 00:00:00 18 42 Norte 54 Norte 0 1018 0.3 68
2020-03-16 23:00:00 18.1 40 Norte 54 Norte 0 1018.2 1.1 73
2020-03-16 22:00:00 18.5 40 Norte 50 Norte 0 1018 1 74
2020-03-16 21:00:00 18.4 40 Norte 54 Norte 0 1017.7 0.8 73
2020-03-16 20:00:00 18.7 36 Norte 50 Norte 0 1017.1 0 76
2020-03-16 19:00:00 18.9 33 Norte 46 Nordeste 0 1017 -0.1 76
2020-03-16 18:00:00 18.8 37 Norte 48 Norte 0 1016.9 -0.4 76
2020-03-16 17:00:00 18.4 37 Norte 58 Norte 0 1017.1 -0.9 72
2020-03-16 16:00:00 19.7 35 Norte 46 Norte 0 1017.1 -1.5 68
2020-03-16 15:00:00 20.2 30 Norte 46 Norte 0 1017.3 -1.6 66
2020-03-16 14:00:00 20.2 39 Norte 48 Norte 0 1018 -1.2 62
2020-03-16 13:00:00 20.3 30 Norte 42 Norte 0 1018.6 -0.2 68
2020-03-16 12:00:00 20.1 35 Norte 46 Norte 0 1018.9 0.5 70
2020-03-16 11:00:00 19.9 37 Norte 46 Norte 0 1019.2 1.4 67
2020-03-16 10:00:00 19.7 37 Norte 48 Norte 0 1018.8 1.9 65
2020-03-16 09:00:00 18.9 34 Norte 52 Nordeste 0 1018.4 2 71
2020-03-16 08:00:00 18 41 Norte 52 Norte 0 1017.8 1.5 75
2020-03-16 07:00:00 18.5 42 Norte 55 Norte 0 1016.9 0.5 76
2020-03-16 06:00:00 18.6 37 Norte 45 Norte 0 1016.4 -0.6 69
2020-03-16 05:00:00 18.6 36 Norte 48 Norte 0 1016.3 -1.1 72
2020-03-16 04:00:00 18.4 36 Norte 48 Norte 0 1016.4 -1.4 74
2020-03-16 03:00:00 18.3 37 Norte 52 Nordeste 0 1017 -1.1 72
2020-03-16 02:00:00 18.5 39 Norte 50 Norte 0 1017.4 -0.6 72
2020-03-16 01:00:00 18.3 31 Norte 45 Norte 0 1017.8 0 76
2020-03-16 00:00:00 18.5 35 Norte 52 Norte 0 1018.1 1.1 71
2020-03-15 23:00:00 18.5 34 Norte 45 Norte 0 1018 1.5 72
2020-03-15 22:00:00 18.7 33 Norte 46 Norte 0 1017.8 1.9 70
2020-03-15 21:00:00 18.6 45 Norte 54 Nordeste 0 1017 1.1 70
2020-03-15 20:00:00 18.5 37 Norte 46 Norte 0 1016.5 0.9 72
2020-03-15 19:00:00 18.8 34 Norte 45 Norte 0 1015.9 0.1 72
2020-03-15 18:00:00 19 34 Norte 45 Norte 0 1015.9 -0.5 70
2020-03-15 17:00:00 19.1 38 Norte 46 Norte 0 1015.6 -1 72
2020-03-15 16:00:00 19.7 30 Norte 37 Norte 0 1015.8 -1.4 66
2020-03-15 15:00:00 20.2 27 Norte 37 Norte 0 1016.4 -1.3 62
2020-03-15 14:00:00 19.8 30 Norte 50 Norte 0 1016.6 -1 69
2020-03-15 13:00:00 19.7 33 Norte 42 Nordeste 0 1017.2 0.2 64
2020-03-15 12:00:00 19.4 29 Norte 45 Norte 0 1017.7 0.8 65
2020-03-15 11:00:00 19.9 30 Norte 39 Norte 0 1017.6 1.4 63
2020-03-15 10:00:00 19 32 Norte 41 Norte 0 1017 1.2 71
2020-03-15 09:00:00 18.5 30 Norte 45 Norte 0 1016.9 1.6 68
2020-03-15 08:00:00 17.9 33 Norte 42 Norte 0 1016.2 1.1 73
2020-03-15 07:00:00 18.1 37 Norte 45 Norte 0 1015.8 0.6 76
2020-03-15 06:00:00 18 29 Norte 37 Norte 0 1015.3 -0.3 74
2020-03-15 05:00:00 18.2 28 Norte 39 Norte 0 1015.1 -0.9 74
2020-03-15 04:00:00 18.1 29 Norte 39 Norte 0 1015.2 -1 73
2020-03-15 03:00:00 18.1 26 Norte 42 Norte 0 1015.6 -1.1 70
2020-03-15 02:00:00 18.1 26 Norte 41 Norte 0 1016 -0.9 70
2020-03-15 01:00:00 18.4 30 Norte 39 Norte 0 1016.2 -0.5 72
2020-03-15 00:00:00 18.4 30 Norte 39 Norte 0 1016.7 0.3 70
2020-03-14 23:00:00 18.5 30 Norte 41 Norte 0 1016.9 1.2 71
2020-03-14 22:00:00 18.6 30 Norte 42 Norte 0 1016.7 0.9 70
2020-03-14 21:00:00 18.6 26 Norte 41 Norte 0 1016.4 0.8 71
2020-03-14 20:00:00 18.8 28 Norte 35 Norte 0 1015.7 0.3 73
2020-03-14 19:00:00 18.8 25 Norte 32 Norte 0 1015.8 0.5 73
2020-03-14 18:00:00 19.2 22 Norte 30 Norte 0 1015.6 0 72
2020-03-14 17:00:00 19.8 23 Norte 32 Norte 0 1015.4 -0.7 68
2020-03-14 16:00:00 20.2 28 Norte 35 Norte 0 1015.3 -1.5 67
2020-03-14 15:00:00 21.1 24 Norte 33 Norte 0 1015.6 -1.8 64
2020-03-14 14:00:00 20.9 26 Norte 32 Norte 0 1016.1 -1.4 63
2020-03-14 13:00:00 21.2 21 Norte 32 Norte 0 1016.8 -0.1 63
2020-03-14 12:00:00 20.6 26 Norte 32 Norte 0 1017.4 1 66
2020-03-14 11:00:00 19.7 25 Norte 33 Norte 0 1017.5 1.5 72
2020-03-14 10:00:00 19.8 24 Norte 45 Norte 0 1016.9 1.6 72
2020-03-14 09:00:00 19.3 31 Norte 41 Norte 0 1016.4 1.4 73
2020-03-14 08:00:00 18.5 32 Norte 46 Norte 0 1016 0.8 75
2020-03-14 07:00:00 18.5 38 Norte 50 Norte 0 1015.3 -0.3 75
2020-03-14 06:00:00 18.6 28 Norte 48 Norte 0 1015 -0.8 80
2020-03-14 05:00:00 18.6 26 Norte 42 Nordeste 0 1015.2 -0.9 76
2020-03-14 04:00:00 18.6 34 Norte 48 Norte 0 1015.6 -1.2 76
2020-03-14 03:00:00 18.6 39 Norte 50 Norte 0 1015.8 -1.5 76
2020-03-14 02:00:00 18.7 36 Norte 48 Norte 0 1016.1 -1.4 80
2020-03-14 01:00:00 18.8 32 Norte 48 Norte 0 1016.8 -0.4 78
2020-03-14 00:00:00 18.9 27 Norte 45 Norte 0 1017.3 0.8 80
2020-03-13 23:00:00 18.8 31 Norte 50 Norte 0 1017.5 1.3 79
2020-03-13 22:00:00 19 35 Norte 45 Norte 0 1017.2 1.2 80
2020-03-13 21:00:00 18.9 29 Norte 42 Norte 0 1016.5 0.6 77
2020-03-13 20:00:00 19 22 Norte 42 Norte 0 1016.2 0.3 75
2020-03-13 19:00:00 19.1 30 Norte 45 Norte 0 1016 0.3 77
2020-03-13 18:00:00 19.3 27 Norte 42 Norte 0 1015.9 -0.1 75
2020-03-13 17:00:00 19.5 28 Norte 42 Norte 0 1015.9 -0.6 78
2020-03-13 16:00:00 19.4 37 Nordeste 50 Nordeste 0 1015.7 -1.6 76
2020-03-13 15:00:00 19.4 33 Nordeste 46 Nordeste 0 1016 -1.5 77
2020-03-13 14:00:00 19.8 33 Norte 46 Nordeste 0 1016.5 -1 75
2020-03-13 13:00:00 19.6 34 Norte 46 Norte 0 1017.3 -0.3 75
2020-03-13 12:00:00 19.6 35 Norte 48 Norte 0 1017.5 1 75
2020-03-13 11:00:00 19.3 35 Nordeste 50 Nordeste 0 1017.5 1.1 76
2020-03-13 10:00:00 19.1 29 Nordeste 55 Nordeste 0 1017.6 1.5 78
2020-03-13 09:00:00 18.9 39 Nordeste 48 Nordeste 0 1016.5 1.2 79
2020-03-13 08:00:00 18.6 18 Norte 39 Norte 0 1016.4 1.2 78
2020-03-13 07:00:00 18.4 24 Norte 39 Norte 0 1016.1 0.6 79
2020-03-13 06:00:00 18.4 22 Noroeste 37 Norte 0 1015.3 -0.1 79
2020-03-13 05:00:00 18.4 23 Norte 39 Norte 0 1015.2 -0.6 81
2020-03-13 04:00:00 18.4 19 Norte 42 Norte 0 1015.5 -0.7 82
2020-03-13 03:00:00 18.5 25 Norte 33 Norte 0 1015.4 -0.9 82
2020-03-13 02:00:00 18.6 24 Norte 32 Norte 0 1015.8 -0.8 83
2020-03-13 01:00:00 18.7 22 Norte 39 Norte 0 1016.2 0 83
2020-03-13 00:00:00 18.8 27 Norte 39 Norte 0 1016.3 0.5 84
2020-03-12 23:00:00 18.8 21 Norte 41 Norte 0 1016.6 1.3 85
2020-03-12 22:00:00 19 28 Norte 39 Nordeste 0 1016.2 1.2 85
2020-03-12 21:00:00 19.1 19 Norte 33 Norte 0 1015.8 0.9 85
2020-03-12 20:00:00 19.1 19 Norte 39 Norte 0 1015.3 0.6 84
2020-03-12 19:00:00 19.3 21 Norte 39 Nordeste 0 1015 0.3 84
2020-03-12 18:00:00 19.6 21 Norte 41 Nordeste 0 1014.9 0.1 83
2020-03-12 17:00:00 19.7 21 Nordeste 39 Nordeste 0 1014.7 -0.5 83
2020-03-12 16:00:00 20.1 25 Norte 33 Nordeste 0 1014.7 -1.2 81
2020-03-12 15:00:00 20.4 21 Nordeste 33 Nordeste 0 1014.8 -1.5 81
2020-03-12 14:00:00 20.9 16 Nordeste 26 Nordeste 0 1015.2 -1.1 78
2020-03-12 13:00:00 20.9 22 Norte 28 Norte 0 1015.9 0 78
2020-03-12 12:00:00 21.7 14 Norte 28 Norte 0 1016.3 1.7 74
2020-03-12 11:00:00 20.3 19 Norte 30 Norte 0 1016.3 1.5 81
2020-03-12 10:00:00 20.2 16 Nordeste 30 Nordeste 0 1015.9 1.4 82
2020-03-12 09:00:00 19.6 10 Noroeste 18 Noroeste 0 1014.6 0.3 84
2020-03-12 08:00:00 18.5 11 Noroeste 18 Norte 0 1014.8 1.3 87
2020-03-12 07:00:00 18.2 8 Norte 21 Nordeste 0 1014.5 1 87
2020-03-12 06:00:00 18.4 12 Norte 26 Noroeste 0 1014.3 0.4 88
2020-03-12 05:00:00 18.1 17 Noroeste 28 Noroeste 0 1013.5 -1.2 87
2020-03-12 04:00:00 18.3 18 Noroeste 28 Norte 0 1013.5 -1.6 87
2020-03-12 03:00:00 18.4 22 Noroeste 30 Noroeste 0 1013.9 -1.5 86
2020-03-12 02:00:00 18.5 23 Noroeste 30 Noroeste 0 1014.7 -0.7 87
2020-03-12 01:00:00 18.5 19 Noroeste 30 Norte 0 1015.1 -0.2 88
2020-03-12 00:00:00 18.6 19 Norte 28 Norte 0 1015.4 0.4 89
2020-03-11 23:00:00 18.7 14 Norte 26 Norte 0 1015.4 1 90
2020-03-11 22:00:00 18.7 22 Norte 28 Norte 0 1015.3 1.2 90
2020-03-11 21:00:00 18.8 14 Norte 24 Norte 0 1015 1.1 90
2020-03-11 20:00:00 18.9 15 Nordeste 24 Norte 0 1014.4 0.3 90
2020-03-11 19:00:00 19.3 14 Nordeste 21 Nordeste 0 1014.1 0 88
2020-03-11 18:00:00 19.7 13 Nordeste 21 Nordeste 0 1013.9 -0.6 85
2020-03-11 17:00:00 19.8 15 Nordeste 28 Nordeste 0 1014.1 -0.7 85
2020-03-11 16:00:00 20 14 Nordeste 26 Nordeste 0 1014.1 -1.2 84
2020-03-11 15:00:00 19.7 15 Nordeste 28 Nordeste 0 1014.5 -1.3 85
2020-03-11 14:00:00 20.3 15 Nordeste 24 Nordeste 0 1014.8 -1 81
2020-03-11 13:00:00 20.2 18 Nordeste 26 Nordeste 0 1015.3 -0.3 80
2020-03-11 12:00:00 20.2 15 Nordeste 22 Nordeste 0 1015.8 0.7 80
2020-03-11 11:00:00 19.8 9 Nordeste 28 Este 0 1015.8 1 81
2020-03-11 10:00:00 20 22 Sudeste 35 Sudeste 0 1015.6 1.1 81
2020-03-11 09:00:00 19.8 14 Sudeste 24 Sudeste 0 1015.1 0.7 80
2020-03-11 08:00:00 18.5 8 Nordeste -- -- -- 1014.8 0.4 88
2020-03-11 07:00:00 18.2 13 Norte 22 Norte 0 1014.5 -0.1 88
2020-03-11 06:00:00 18.4 17 Norte 30 Nordeste 0 1014.4 -0.8 88
2020-03-11 05:00:00 18.2 11 Noroeste 18 Noroeste 0 1014.4 -1.3 87
2020-03-11 04:00:00 18.4 14 Norte 24 Norte 0 1014.6 -1.8 86
2020-03-11 03:00:00 18.3 18 Noroeste 30 Norte 0 1015.2 -1.4 85
2020-03-11 02:00:00 18.4 21 Norte 30 Norte 0 1015.7 -0.9 86
2020-03-11 01:00:00 18.4 15 Norte 28 Norte 0 1016.4 -0.4 85
2020-03-11 00:00:00 18.4 21 Norte 32 Norte 0 1016.6 0.1 86
2020-03-10 23:00:00 18.7 19 Norte 30 Norte 0 1016.6 0.7 87
2020-03-10 22:00:00 18.8 18 Norte 30 Norte 0 1016.8 0.8 87
2020-03-10 21:00:00 18.8 17 Norte 30 Norte 0 1016.5 0.4 86
2020-03-10 20:00:00 19.1 20 Norte 28 Norte 0 1015.9 -0.1 86
2020-03-10 19:00:00 19.4 15 Norte 24 Norte 0 1016 -0.3 85
2020-03-10 18:00:00 19.5 18 Norte 41 Nordeste 0 1016.1 -0.6 84
2020-03-10 17:00:00 19.6 17 Nordeste 28 Nordeste 0 1016 -- 84
2020-03-10 16:00:00 19.6 19 Nordeste 33 Nordeste 0 1016.3 -1.8 85
2020-03-10 15:00:00 19.8 18 Nordeste 24 Nordeste 0 1016.7 -2.1 83
2020-03-10 14:00:00 19.5 15 Nordeste 24 Este 0 -- -- 81
2020-03-10 13:00:00 -- 13 Nordeste 26 Nordeste 0 1018.1 -1 --
2020-03-10 12:00:00 -- 11 Nordeste -- -- -- 1018.8 0 --
2020-03-10 11:00:00 -- 6 Noroeste 22 Nordeste 0 -- -- --
2020-03-10 10:00:00 -- 8 Noroeste 21 Nordeste 0 1019.1 1.8 --
2020-03-10 09:00:00 18.9 14 Norte 24 Norte 0 1018.8 1.9 85
2020-03-10 08:00:00 18.6 16 Norte 32 Norte 0 1017.8 1.1 86
2020-03-10 07:00:00 18.6 19 Noroeste 35 Norte 0 1017.3 0.3 86
2020-03-10 06:00:00 18.6 21 Noroeste 39 Noroeste 0 1016.9 -0.4 85
2020-03-10 05:00:00 18.7 20 Noroeste 33 Noroeste 0 1016.7 -1.3 84
2020-03-10 04:00:00 18.8 20 Oeste 37 Noroeste 0 1017 -1.3 82
2020-03-10 03:00:00 18.6 18 Noroeste 32 Noroeste 0 1017.3 -1.8 84
2020-03-10 02:00:00 18.7 19 Norte 32 Norte 0 1018 -1.4 85
2020-03-10 01:00:00 18.9 19 Noroeste 30 Noroeste 0 1018.3 -0.9 82
2020-03-10 00:00:00 18.9 18 Noroeste 28 Noroeste 0 1019.1 0.1 86
2020-03-09 23:00:00 19.1 17 Noroeste 30 Norte 0 1019.4 1.1 83
2020-03-09 22:00:00 19.3 21 Oeste 33 Noroeste 0 1019.2 1.2 82
2020-03-09 21:00:00 19.2 15 Noroeste 30 Noroeste 0 1019 0.7 84
2020-03-09 20:00:00 19.2 17 Noroeste 30 Norte 0 1018.3 -0.2 86
2020-03-09 19:00:00 19.4 23 Norte 39 Norte 0 1018 -0.8 86
2020-03-09 18:00:00 19.6 19 Norte 33 Nordeste 0 1018.3 -0.9 84
2020-03-09 17:00:00 19.8 24 Norte 39 Nordeste 0 1018.5 -1.4 83
2020-03-09 16:00:00 21.1 10 Noroeste 22 Sudoeste 0 1018.8 -2 76
2020-03-09 15:00:00 21.3 6 Noroeste 26 Norte 0 1019.2 -2.1 75
2020-03-09 14:00:00 20.6 23 Nordeste 37 Nordeste 0 1019.9 -1.5 79
2020-03-09 13:00:00 21.2 15 Norte 26 Nordeste 0 1020.8 -0.4 75
2020-03-09 12:00:00 21.6 9 Norte 28 Norte 0 1021.3 0.9 73
2020-03-09 11:00:00 20.9 21 Norte 37 Norte 0 1021.4 1.7 76
2020-03-09 10:00:00 20.4 18 Norte 41 Norte 0 1021.2 2 77
2020-03-09 09:00:00 19.4 34 Norte 52 Nordeste 0 1020.4 2.1 80
2020-03-09 08:00:00 18.8 21 Norte 39 Norte 0 1019.7 1.9 83
2020-03-09 07:00:00 18.7 21 Norte 33 Norte 0 1019.2 1.2 82
2020-03-09 06:00:00 18.7 16 Noroeste 42 Noroeste 0 1018.3 0.3 80
2020-03-09 05:00:00 18.7 23 Noroeste 50 Norte 0 1017.8 -0.5 81
2020-03-09 04:00:00 18.8 24 Noroeste 61 Noroeste 0 1018 -0.8 79
2020-03-09 03:00:00 18.8 32 Oeste 63 Noroeste 0 1018 -1.4 79
2020-03-09 02:00:00 19 40 Oeste 59 Oeste 0 1018.3 -0.9 81
2020-03-09 01:00:00 19.1 33 Oeste 55 Oeste 0 1018.8 0 80
2020-03-09 00:00:00 19.1 19 Noroeste 35 Noroeste 0 1019.4 1 83
2020-03-08 23:00:00 19.2 19 Norte 35 Norte 0 1019.2 1.5 82
2020-03-08 22:00:00 19.3 21 Oeste 37 Noroeste 0 1018.8 1.9 79
2020-03-08 21:00:00 19.2 21 Norte 39 Norte 0 1018.4 1.8 82
2020-03-08 20:00:00 19.2 22 Norte 46 Norte 0 1017.7 1.3 83
2020-03-08 19:00:00 19.3 18 Norte 39 Norte 0 1016.9 0.5 84
2020-03-08 18:00:00 19.7 21 Norte 35 Norte 0 1016.6 -0.1 83
2020-03-08 17:00:00 19.8 18 Norte 35 Norte 0 1016.4 -0.5 81
2020-03-08 16:00:00 20.1 21 Norte 41 Nordeste 0 1016.4 -1.5 80
2020-03-08 15:00:00 20.7 21 Norte 37 Norte 0 1016.7 -1.8 77
2020-03-08 14:00:00 20.9 30 Norte 42 Norte 0 1016.9 -1.4 74
2020-03-08 13:00:00 20.8 23 Norte 46 Nordeste 0 1017.9 0.3 73
2020-03-08 12:00:00 20.7 20 Norte 45 Nordeste 0 1018.5 1.5 73
2020-03-08 11:00:00 20 34 Norte 50 Norte 0 1018.3 1.8 72
2020-03-08 10:00:00 19.8 34 Norte 52 Norte 0 1017.6 1.5 74
2020-03-08 09:00:00 19.2 36 Norte 50 Norte 0 1017 1.2 75
2020-03-08 08:00:00 18.6 28 Norte 37 Norte 0 1016.5 1.1 77
2020-03-08 07:00:00 18.7 27 Norte 46 Norte 0 1016.1 0.9 77
2020-03-08 06:00:00 18.7 31 Norte 42 Norte 0 1015.8 0.2 77
2020-03-08 05:00:00 18.5 33 Norte 50 Norte 0 1015.4 -0.6 76
2020-03-08 04:00:00 18.4 36 Norte 46 Norte 0 1015.2 -1.2 76
2020-03-08 03:00:00 18.4 33 Norte 50 Norte 0 1015.6 -1.1 75
2020-03-08 02:00:00 18.6 36 Norte 46 Norte 0 1016 -0.9 75
2020-03-08 01:00:00 18.5 34 Norte 50 Norte 0 1016.4 -0.1 74
2020-03-08 00:00:00 18.6 33 Norte 50 Norte 0 1016.7 0.7 74
2020-03-07 23:00:00 18.4 33 Norte 50 Norte 0 1016.9 1.6 73
2020-03-07 22:00:00 18.5 31 Norte 50 Norte 0 1016.5 1.5 74
2020-03-07 21:00:00 18.8 39 Norte 54 Norte 0 1016 0.9 76
2020-03-07 20:00:00 18.7 39 Norte 55 Norte 0 1015.3 0.5 74
2020-03-07 19:00:00 18.7 36 Norte 48 Norte 0 1015 0 75
2020-03-07 18:00:00 18.5 36 Norte 48 Norte 0 1015.1 -0.7 74
2020-03-07 17:00:00 18.9 41 Norte 50 Norte 0 1014.8 -1.7 74
2020-03-07 16:00:00 19.3 34 Norte 45 Norte 0 1015 -2.5 72
2020-03-07 15:00:00 19.7 32 Norte 42 Norte 0 1015.8 -2.6 69
2020-03-07 14:00:00 19.8 28 Norte 41 Norte 0 1016.5 -2.2 72
2020-03-07 13:00:00 20.1 31 Norte 42 Norte 0 1017.5 -1.1 64
2020-03-07 12:00:00 19.9 31 Norte 42 Norte 0 1018.4 -0.1 69
2020-03-07 11:00:00 19.8 34 Norte 46 Nordeste 0 1018.7 0.9 67
2020-03-07 10:00:00 19.8 33 Norte 48 Norte 0 1018.6 1.4 67
2020-03-07 09:00:00 19.3 33 Norte 48 Nordeste 0 1018.5 1.6 67
2020-03-07 08:00:00 18.5 37 Norte 52 Norte 0 1017.8 1.1 70
2020-03-07 07:00:00 18.3 42 Norte 59 Nordeste 0 1017.2 0.1 71
2020-03-07 06:00:00 18.3 36 Norte 46 Norte 0 1016.9 -0.4 70
2020-03-07 05:00:00 18.2 32 Norte 46 Norte 0 1016.7 -1.4 71
2020-03-07 04:00:00 18.1 34 Norte 50 Norte 0 1017.1 -1.6 73
2020-03-07 03:00:00 18.1 40 Norte 55 Norte 0 1017.3 -1.7 73
2020-03-07 02:00:00 18.2 36 Norte 48 Norte 0 1018.1 -1 72
2020-03-07 01:00:00 18.1 37 Norte 50 Norte 0 1018.7 -0.6 73
2020-03-07 00:00:00 18.3 39 Norte 52 Norte 0 1019 0.1 73
2020-03-06 23:00:00 18.2 41 Norte 59 Nordeste 0 1019.1 0.5 72
2020-03-06 22:00:00 18.2 40 Norte 58 Norte 0 1019.3 1 72
2020-03-06 21:00:00 18.4 42 Norte 55 Norte 0 1018.9 0.5 72
2020-03-06 20:00:00 18.3 43 Norte 58 Norte 0 1018.6 -0.1 73
2020-03-06 19:00:00 18.8 40 Norte 58 Norte 0 1018.3 -0.8 73
2020-03-06 18:00:00 18.8 43 Norte 58 Norte 0 1018.4 -1.4 75
2020-03-06 17:00:00 18.8 41 Norte 58 Norte 0 1018.7 -1.2 71
2020-03-06 16:00:00 18.9 41 Norte 58 Norte 0 1019.1 -1.5 72
2020-03-06 15:00:00 18.9 40 Norte 59 Nordeste 0 1019.8 -1.7 73
2020-03-06 14:00:00 19.1 47 Nordeste 67 Nordeste 0 1019.9 -1.9 69
2020-03-06 13:00:00 19.3 46 Nordeste 63 Nordeste 0 1020.6 -0.7 67
2020-03-06 12:00:00 19.5 44 Norte 61 Norte 0 1021.5 0.9 72
2020-03-06 11:00:00 19.3 41 Norte 58 Norte 0 1021.8 1.9 71
2020-03-06 10:00:00 18.9 46 Norte 65 Norte 0 1021.3 2.1 75
2020-03-06 09:00:00 18.7 44 Norte 59 Norte 0 1020.6 2.1 77
2020-03-06 08:00:00 18.4 40 Norte 54 Norte 0 1019.9 1.1 81
2020-03-06 07:00:00 18.4 36 Norte 59 Norte 0 1019.2 0.2 85
2020-03-06 06:00:00 18.7 42 Norte 58 Nordeste 0 1018.5 -1.3 84
2020-03-06 05:00:00 18.6 36 Norte 50 Nordeste 0 1018.8 -1.8 87
2020-03-06 04:00:00 19.1 26 Norte 45 Norte 0 1019 -2.1 85
2020-03-06 03:00:00 19.2 20 Norte 45 Norte 0 1019.8 -1.1 82
2020-03-06 02:00:00 19.1 16 Norte 39 Norte 0 1020.6 -0.8 81
2020-03-06 01:00:00 19.3 24 Norte 46 Norte 0 1021.1 -0.7 81
2020-03-06 00:00:00 19.3 36 Norte 59 Nordeste 0 1020.9 -0.3 79
2020-03-05 23:00:00 19.2 33 Norte 46 Norte 0 1021.4 1 76
2020-03-05 22:00:00 19.4 31 Norte 55 Norte 0 1021.8 1.7 76
2020-03-05 21:00:00 19.3 32 Norte 50 Norte 0 1021.2 1.7 77
2020-03-05 20:00:00 19.1 35 Norte 50 Norte 0 1020.4 1.2 75
2020-03-05 19:00:00 19.1 38 Norte 50 Norte 0 1020.1 1 77
2020-03-05 18:00:00 19.3 35 Norte 52 Nordeste 0 1019.5 -0.2 79
2020-03-05 17:00:00 19.6 29 Norte 42 Norte 0 1019.2 -1 77
2020-03-05 16:00:00 19.6 27 Norte 41 Norte 0 1019.1 -1.7 78
2020-03-05 15:00:00 19.9 31 Norte 48 Norte 0 1019.7 -1.5 78
2020-03-05 14:00:00 19.8 33 Norte 45 Norte 0 1020.2 -0.8 77
2020-03-05 13:00:00 20.4 30 Norte 42 Norte 0 1020.8 0.1 75
2020-03-05 12:00:00 20.2 31 Norte 45 Norte 0 1021.2 1 75
2020-03-05 11:00:00 20.3 28 Norte 37 Norte 0 1021 1.3 75
2020-03-05 10:00:00 20 27 Norte 37 Norte 0 1020.7 1.8 78
2020-03-05 09:00:00 19.2 28 Norte 42 Norte 0 1020.2 1.9 80
2020-03-05 08:00:00 18.9 33 Norte 46 Norte 0 1019.7 1.4 80
2020-03-05 07:00:00 19 30 Norte 41 Norte 0 1018.9 0.4 81
2020-03-05 06:00:00 18.9 27 Norte 41 Noroeste 0 1018.3 -0.3 79
2020-03-05 05:00:00 19 30 Norte 41 Norte 0 1018.3 -0.5 80
2020-03-05 04:00:00 19.1 28 Norte 41 Norte 0 1018.5 -0.7 81
2020-03-05 03:00:00 19.1 28 Norte 37 Norte 0 1018.6 -0.9 82
2020-03-05 02:00:00 19.1 25 Norte 45 Noroeste 0 1018.8 -1 83
2020-03-05 01:00:00 19.2 31 Noroeste 41 Noroeste 0 1019.2 -0.4 82
2020-03-05 00:00:00 19.2 26 Norte 35 Norte 0 1019.5 0.7 82
2020-03-04 23:00:00 19.4 24 Norte 35 Noroeste 0 1019.8 1.6 82
2020-03-04 22:00:00 19.1 22 Noroeste 39 Norte 0 1019.6 1.8 83
2020-03-04 21:00:00 19.4 27 Norte 46 Norte 0 1018.8 0.8 85
2020-03-04 20:00:00 19.8 37 Noroeste 55 Noroeste 0 1018.2 0.4 79
2020-03-04 19:00:00 19.9 39 Norte 55 Norte 0 1017.8 -0.1 78
2020-03-04 18:00:00 19.9 37 Noroeste 48 Noroeste 0 1018 -0.5 77
2020-03-04 17:00:00 20.2 26 Norte 33 Norte 0 1017.8 -1 79
2020-03-04 16:00:00 20 27 Norte 39 Norte 0 1017.9 -1.7 80
2020-03-04 15:00:00 20.5 27 Norte 39 Nordeste 0 1018.5 -1.9 79
2020-03-04 14:00:00 20.5 24 Nordeste 33 Nordeste 0 1018.8 -2.1 78
2020-03-04 13:00:00 21.5 21 Norte 30 Norte 0 1019.6 -1.2 73
2020-03-04 12:00:00 21.3 21 Norte 30 Norte 0 1020.4 0.1 72
2020-03-04 11:00:00 20.6 20 Norte 30 Norte 0 1020.9 0.9 74
2020-03-04 10:00:00 19.9 24 Norte 33 Norte 0 1020.8 1.5 76
2020-03-04 09:00:00 19.6 22 Norte 33 Norte 0 1020.3 1.3 79
2020-03-04 08:00:00 18.8 21 Norte 30 Norte 0 1020 1.4 83
2020-03-04 07:00:00 18.6 23 Norte 30 Norte 0 1019.3 0.4 84
2020-03-04 06:00:00 18.5 22 Norte 32 Norte 0 1019 -0.6 84
2020-03-04 05:00:00 18.6 24 Norte 35 Nordeste 0 1018.6 -1.4 84
2020-03-04 04:00:00 18.7 21 Norte 37 Nordeste 0 1018.9 -1.6 84
2020-03-04 03:00:00 18.7 27 Nordeste 37 Nordeste 0 1019.6 -1.4 84
2020-03-04 02:00:00 18.7 28 Nordeste 37 Nordeste 0 1020 -1.4 84
2020-03-04 01:00:00 18.8 27 Norte 37 Nordeste 0 1020.5 -0.9 83
2020-03-04 00:00:00 19.1 25 Norte 35 Norte 0 1021 0.2 84
2020-03-03 23:00:00 19 26 Norte 35 Norte 0 1021.4 1 82
2020-03-03 22:00:00 19.3 19 Norte 35 Norte 0 1021.4 1.2 81
2020-03-03 21:00:00 19.2 31 Norte 37 Norte 0 1020.8 0.9 81
2020-03-03 20:00:00 19.4 23 Norte 33 Norte 0 1020.4 0.5 80
2020-03-03 19:00:00 19.2 26 Norte 35 Norte 0 1020.2 0.2 78
2020-03-03 18:00:00 19.5 26 Norte 33 Norte 0 1019.9 -0.5 77
2020-03-03 17:00:00 19.8 24 Norte 32 Norte 0 1019.9 -1.3 78
2020-03-03 16:00:00 19.8 24 Norte 33 Nordeste 0 1020 -2 76
2020-03-03 15:00:00 20.1 23 Norte 32 Nordeste 0 1020.4 -2.2 76
2020-03-03 14:00:00 20.1 24 Nordeste 32 Norte 0 1021.2 -1.4 74
2020-03-03 13:00:00 20.5 21 Norte 28 Norte 0 1022 -0.3 73
2020-03-03 12:00:00 20.4 22 Nordeste 37 Nordeste 0 1022.6 1.1 73
2020-03-03 11:00:00 20.9 25 Norte 33 Nordeste 0 1022.6 1.9 72
2020-03-03 10:00:00 20.6 24 Norte 33 Norte 0 1022.3 2.2 74
2020-03-03 09:00:00 19.5 24 Norte 32 Norte 0 1021.5 2 77
2020-03-03 08:00:00 19.1 23 Norte 30 Norte 0 1020.7 1.3 81
2020-03-03 07:00:00 19 17 Norte 28 Nordeste 0 1020.1 0.5 82
2020-03-03 06:00:00 19 22 Nordeste 35 Nordeste 0 1019.5 -0.7 80
2020-03-03 05:00:00 18.9 29 Nordeste 41 Nordeste 0 1019.4 -1.2 81
2020-03-03 04:00:00 18.9 27 Nordeste 37 Nordeste 0 1019.6 -1.6 83
2020-03-03 03:00:00 19 23 Norte 32 Norte 0 1020.2 -1.3 83
2020-03-03 02:00:00 18.8 20 Norte 26 Norte 0 1020.6 -1.1 83
2020-03-03 01:00:00 18.8 15 Norte 24 Nordeste 0 1021.2 -0.4 84
2020-03-03 00:00:00 19 19 Nordeste 32 Norte 0 1021.5 0.2 84
2020-03-02 23:00:00 19.2 26 Norte 41 Norte 0 1021.7 0.8 84
2020-03-02 22:00:00 19.2 28 Norte 37 Norte 0 1021.6 1.1 83
2020-03-02 21:00:00 19.2 28 Norte 33 Norte 0 1021.3 1 82
2020-03-02 20:00:00 19.4 22 Norte 30 Norte 0 1020.9 0.7 81
2020-03-02 19:00:00 19.6 23 Norte 30 Norte 0 1020.5 0.3 81
2020-03-02 18:00:00 20 22 Norte 32 Norte 0 1020.3 -0.3 80
2020-03-02 17:00:00 20.7 25 Norte 32 Norte 0 1020.2 -1.1 76
2020-03-02 16:00:00 21 21 Norte 30 Norte 0 1020.2 -2 74
2020-03-02 15:00:00 21.3 19 Norte 28 Norte 0 1020.6 -2.2 73
2020-03-02 14:00:00 21.7 18 Norte 24 Norte 0 1021.3 -1.4 72
2020-03-02 13:00:00 21.5 17 Norte 26 Norte 0 1022.2 -0.1 70
2020-03-02 12:00:00 21 19 Norte 28 Norte 0 1022.8 1.2 72
2020-03-02 11:00:00 20.7 22 Norte 28 Norte 0 1022.7 1.7 76
2020-03-02 10:00:00 19.4 20 Norte 30 Norte 0 1022.3 1.9 81
2020-03-02 09:00:00 19.2 21 Norte 26 Norte 0 1021.6 1.5 76
2020-03-02 08:00:00 19 10 Norte 15 Nordeste 0 1021 0.9 76
2020-03-02 07:00:00 18.8 14 Norte 26 Norte 0 1020.4 0 79
2020-03-02 06:00:00 18.9 21 Norte 33 Norte 0 1020.1 -0.7 79
2020-03-02 05:00:00 18.7 22 Norte 32 Norte 0 1020.1 -1.2 79
2020-03-02 04:00:00 18.9 21 Noroeste 33 Noroeste 0 1020.4 -1.2 78
2020-03-02 03:00:00 18.9 24 Norte 32 Norte 0 1020.8 -1.2 77
2020-03-02 02:00:00 18.9 23 Norte 33 Norte 0 1021.3 -0.6 75
2020-03-02 01:00:00 18.8 21 Norte 30 Norte 0 1021.6 0.2 77
2020-03-02 00:00:00 19.1 22 Norte 37 Norte 0 1022 1.2 77
2020-03-01 23:00:00 19.1 32 Norte 39 Norte 0 1021.9 1.9 77
2020-03-01 22:00:00 19 26 Norte 33 Noroeste 0 1021.4 1.9 77
2020-03-01 21:00:00 19.1 22 Norte 32 Norte 0 1020.8 1.1 78
2020-03-01 20:00:00 19 22 Norte 30 Norte 0 1020 0.4 78
2020-03-01 19:00:00 19.1 20 Norte 28 Norte 0 1019.5 -0.1 78
2020-03-01 18:00:00 19.3 23 Norte 30 Norte 0 1019.7 0 78
2020-03-01 17:00:00 19.7 13 Nordeste 21 Nordeste 0 1019.6 -0.1 77
2020-03-01 16:00:00 20.4 14 Norte 26 Norte 0 1019.6 -0.6 75
2020-03-01 15:00:00 20.9 14 Norte 30 Norte 0 1019.7 -0.7 77
2020-03-01 14:00:00 20.9 25 Norte 35 Norte 0 1019.7 -1.2 77
2020-03-01 13:00:00 20.6 23 Noroeste 33 Norte 0 1020.2 -0.9 73
2020-03-01 12:00:00 20.2 17 Norte 30 Norte 0 1020.4 -0.3 74
2020-03-01 11:00:00 19.5 22 Norte 30 Norte 0 1020.9 0.1 76
2020-03-01 10:00:00 19 24 Norte 33 Norte 0 1021.1 1 79
2020-03-01 09:00:00 18.5 21 Norte 30 Norte 0 1020.7 0.8 79
2020-03-01 08:00:00 18.3 24 Norte 32 Norte 0 1020.8 1 81
2020-03-01 07:00:00 18.3 21 Norte 32 Norte 0 1020.1 -0.2 81
2020-03-01 06:00:00 18.3 23 Norte 30 Norte 0 1019.9 -0.6 81
2020-03-01 05:00:00 18.4 22 Norte 33 Norte 0 1019.8 -0.6 80
2020-03-01 04:00:00 18.4 23 Norte 33 Norte 0 1020.3 -0.6 82
2020-03-01 03:00:00 18.5 23 Norte 32 Norte 0 1020.5 -0.9 84
2020-03-01 02:00:00 18.4 18 Norte 30 Noroeste 0 1020.4 -1.6 83
2020-03-01 01:00:00 18.5 19 Noroeste 28 Noroeste 0 1020.9 -0.9 82
2020-03-01 00:00:00 18.5 18 Noroeste 24 Noroeste 0 1021.4 0 81
2020-02-29 23:00:00 18.7 19 Norte 24 Norte 0 1022 1.5 81
2020-02-29 22:00:00 18.7 17 Norte 28 Norte 0 1021.8 1.7 81
2020-02-29 21:00:00 18.8 23 Norte 32 Norte 0 1021.4 1.8 81
2020-02-29 20:00:00 19 24 Norte 33 Norte 0 1020.5 1.2 80
2020-02-29 19:00:00 19.2 24 Norte 35 Norte 0 1020.1 0.8 79
2020-02-29 18:00:00 19.8 26 Noroeste 37 Noroeste 0 1019.6 -0.2 74
2020-02-29 17:00:00 19.8 26 Norte 33 Norte 0 1019.3 -0.9 75
2020-02-29 16:00:00 20.8 20 Norte 24 Norte 0 1019.3 -1.2 73
2020-02-29 15:00:00 20.1 5 Este 21 Sudeste 0 1019.8 -1.3 77
2020-02-29 14:00:00 20.7 10 Este 24 Norte 0 1020.2 -1.1 73
2020-02-29 13:00:00 21 17 Norte 28 Norte 0 1020.5 -0.5 75
2020-02-29 12:00:00 20.4 17 Norte 24 Norte 0 1021.1 0.7 74
2020-02-29 11:00:00 20.1 11 Norte 26 Nordeste 0 1021.3 1.6 74
2020-02-29 10:00:00 19.1 13 Nordeste 21 Nordeste 0 1021 2 80
2020-02-29 09:00:00 19 6 Este 32 Norte 0 1020.4 1.4 80
2020-02-29 08:00:00 18.3 24 Noroeste 35 Noroeste 0 1019.7 1 82
2020-02-29 07:00:00 18.1 23 Noroeste 32 Norte 0 1019 -0.2 81
2020-02-29 06:00:00 18.1 19 Norte 26 Norte 0 1019 -0.3 81
2020-02-29 05:00:00 18.1 20 Norte 30 Norte 0 1018.7 -0.9 80
2020-02-29 04:00:00 18 20 Norte 30 Norte 0 1019.2 -0.8 79
2020-02-29 03:00:00 18.1 23 Noroeste 35 Norte 0 1019.3 -1.1 78
2020-02-29 02:00:00 18.3 26 Norte 35 Norte 0 1019.6 -0.7 77
2020-02-29 01:00:00 18.4 26 Norte 35 Norte 0 1020 0.4 77
2020-02-29 00:00:00 18.7 31 Norte 37 Norte 0 1020.4 1.1 77
2020-02-28 23:00:00 18.5 27 Noroeste 48 Norte 0 1020.3 1.8 75
2020-02-28 22:00:00 18.7 32 Norte 50 Noroeste 0 1019.6 1.7 76
2020-02-28 21:00:00 18.7 32 Noroeste 45 Norte 0 1019.3 1.4 75
2020-02-28 20:00:00 18.7 28 Noroeste 39 Noroeste 0 1018.5 0.8 75
2020-02-28 19:00:00 18.7 23 Norte 33 Norte 0 1017.9 0.2 74
2020-02-28 18:00:00 19.3 21 Norte 28 Norte 0 1017.9 0.3 72
2020-02-28 17:00:00 19.8 15 Norte 18 Norte 0 1017.7 -0.5 71
2020-02-28 16:00:00 19.4 10 Nordeste 15 Nordeste 0 1017.7 -0.9 69
2020-02-28 15:00:00 19.4 12 Este 21 Este 0 1017.6 -1.3 71
2020-02-28 14:00:00 19.8 14 Nordeste 26 Nordeste 0 1018.2 -0.8 69
2020-02-28 13:00:00 20.8 18 Norte 30 Norte 0 1018.6 -0.4 66
2020-02-28 12:00:00 20.2 20 Norte 28 Norte 0 1018.9 0.3 67
2020-02-28 11:00:00 20.3 17 Norte 22 Norte 0 1019 1.1 66
2020-02-28 10:00:00 19.2 17 Norte 24 Norte 0 1019 1.6 70
2020-02-28 09:00:00 18.7 16 Norte 26 Norte 0 1018.6 1.6 72
2020-02-28 08:00:00 18 15 Norte 28 Norte 0 1017.9 0.9 74
2020-02-28 07:00:00 17.9 19 Norte 30 Norte 0 1017.4 0.1 74
2020-02-28 06:00:00 18.1 24 Norte 30 Norte 0 1017 -0.6 73
2020-02-28 05:00:00 18.1 23 Norte 30 Norte 0 1017 -1.1 74
2020-02-28 04:00:00 18.2 18 Norte 30 Norte 0 1017.3 -1.1 74
2020-02-28 03:00:00 18.1 18 Norte 30 Norte 0 1017.6 -1.2 73
2020-02-28 02:00:00 18.1 24 Norte 35 Norte 0 1018.1 -1 73
2020-02-28 01:00:00 18.3 19 Noroeste 32 Norte 0 1018.4 -0.7 71
2020-02-28 00:00:00 18.3 18 Norte 28 Norte 0 1018.8 0.4 71